Time;durP1;ratioP1;P1;durP2;ratioP2;P2;SDS_P1;SDS_P2;PMS_P1;PMS_P2;Temp;Humidity;BMP_temperature;BMP_pressure;BME280_temperature;BME280_humidity;BME280_pressure;Samples;Min_cycle;Max_cycle;Signal;HPM_P1;HPM_P2
2023/08/16 00:01:58;;;;;;;4.77;3.70;;;;;;;;;;5034645;28;20429;-89
2023/08/16 00:04:28;;;;;;;6.90;3.83;;;;;;;;;;5030562;28;20929;-89
2023/08/16 00:06:54;;;;;;;7.07;4.17;;;;;;;;;;5019482;28;20503;-90
2023/08/16 00:09:20;;;;;;;8.80;3.77;;;;;;;;;;5000143;28;20440;-89
2023/08/16 00:11:46;;;;;;;3.77;3.40;;;;;;;;;;5005034;28;20424;-88
2023/08/16 00:14:12;;;;;;;3.97;3.57;;;;;;;;;;5006366;28;20438;-89
2023/08/16 00:16:43;;;;;;;5.03;4.53;;;;;;;;;;5034573;28;20492;-88
2023/08/16 00:19:09;;;;;;;9.03;4.07;;;;;;;;;;4989986;28;20972;-89
2023/08/16 00:21:35;;;;;;;4.10;3.80;;;;;;;;;;5010673;28;20422;-89
2023/08/16 00:24:04;;;;;;;5.13;3.40;;;;;;;;;;5007225;28;20467;-89
2023/08/16 00:26:30;;;;;;;3.57;3.27;;;;;;;;;;5035366;28;20470;-88
2023/08/16 00:28:56;;;;;;;4.60;4.20;;;;;;;;;;5024866;28;20406;-89
2023/08/16 00:31:22;;;;;;;5.07;4.33;;;;;;;;;;4991610;28;20585;-89
2023/08/16 00:33:48;;;;;;;4.37;3.40;;;;;;;;;;5025350;28;20431;-89
2023/08/16 00:36:14;;;;;;;5.27;3.83;;;;;;;;;;5027503;28;20434;-90
2023/08/16 00:38:43;;;;;;;5.13;3.37;;;;;;;;;;5000154;28;20505;-89
2023/08/16 00:41:10;;;;;;;6.37;3.77;;;;;;;;;;5002433;28;20481;-89
2023/08/16 00:43:36;;;;;;;4.03;3.63;;;;;;;;;;5014725;28;20558;-89
2023/08/16 00:46:02;;;;;;;5.33;4.40;;;;;;;;;;5004362;28;20477;-88
2023/08/16 00:48:28;;;;;;;4.80;4.40;;;;;;;;;;5003472;28;20502;-89
2023/08/16 00:50:54;;;;;;;5.20;4.20;;;;;;;;;;5025570;28;20832;-88
2023/08/16 00:53:20;;;;;;;5.30;4.50;;;;;;;;;;5050256;28;20441;-89
2023/08/16 00:55:46;;;;;;;4.20;3.80;;;;;;;;;;5028754;28;20418;-89
2023/08/16 00:58:12;;;;;;;5.50;4.33;;;;;;;;;;5023667;28;20426;-89
2023/08/16 01:00:38;;;;;;;7.50;5.03;;;;;;;;;;5022517;28;20431;-89
2023/08/16 01:03:04;;;;;;;4.80;4.40;;;;;;;;;;5022675;28;20577;-89
2023/08/16 01:05:30;;;;;;;5.00;4.17;;;;;;;;;;5029221;28;20919;-89
2023/08/16 01:07:56;;;;;;;5.60;4.40;;;;;;;;;;5041630;28;20563;-88
2023/08/16 01:10:30;;;;;;;7.40;5.30;;;;;;;;;;5034401;28;20560;-89
2023/08/16 01:12:58;;;;;;;5.37;4.50;;;;;;;;;;5029633;28;20492;-88
2023/08/16 01:15:29;;;;;;;7.57;3.93;;;;;;;;;;5047352;28;20410;-89
2023/08/16 01:17:55;;;;;;;5.97;5.03;;;;;;;;;;5036394;28;20433;-89
2023/08/16 01:20:21;;;;;;;6.37;5.13;;;;;;;;;;5060005;28;20413;-88
2023/08/16 01:23:06;;;;;;;6.50;4.50;;;;;;;;;;5040011;28;20490;-89
2023/08/16 01:25:55;;;;;;;6.40;4.63;;;;;;;;;;5019667;28;20446;-89
2023/08/16 01:28:21;;;;;;;6.20;5.10;;;;;;;;;;5043818;28;20434;-89
2023/08/16 01:30:47;;;;;;;5.10;4.60;;;;;;;;;;5032557;28;20576;-88
2023/08/16 01:33:15;;;;;;;5.60;4.53;;;;;;;;;;5046035;28;20461;-88
2023/08/16 01:35:41;;;;;;;7.30;4.70;;;;;;;;;;5042078;28;20798;-88
2023/08/16 01:38:08;;;;;;;5.67;5.17;;;;;;;;;;5029477;28;21016;-90
2023/08/16 01:40:42;;;;;;;6.27;4.87;;;;;;;;;;5033635;28;20936;-88
2023/08/16 01:43:08;;;;;;;5.67;5.00;;;;;;;;;;5031545;28;20456;-88
2023/08/16 01:45:35;;;;;;;5.33;4.83;;;;;;;;;;5036764;28;20550;-88
2023/08/16 01:48:01;;;;;;;5.27;4.77;;;;;;;;;;5032301;28;20508;-89
2023/08/16 01:50:27;;;;;;;5.33;4.23;;;;;;;;;;5031371;28;20477;-89
2023/08/16 01:52:53;;;;;;;5.63;4.83;;;;;;;;;;5034119;28;20417;-89
2023/08/16 01:55:19;;;;;;;5.70;4.60;;;;;;;;;;5030639;28;20971;-89
2023/08/16 01:57:45;;;;;;;6.23;5.63;;;;;;;;;;5021805;28;21133;-89
2023/08/16 02:00:11;;;;;;;5.57;5.03;;;;;;;;;;5026176;28;20952;-89
2023/08/16 02:02:37;;;;;;;6.33;4.80;;;;;;;;;;5027157;28;20414;-88
2023/08/16 02:05:03;;;;;;;5.43;4.67;;;;;;;;;;5036990;28;20459;-89
2023/08/16 02:07:29;;;;;;;5.10;4.23;;;;;;;;;;5027697;28;20426;-88
2023/08/16 02:09:55;;;;;;;6.50;5.47;;;;;;;;;;5030411;28;20489;-89
2023/08/16 02:12:21;;;;;;;5.40;4.90;;;;;;;;;;5037349;28;20522;-88
2023/08/16 02:14:47;;;;;;;6.40;5.70;;;;;;;;;;5037118;28;20445;-89
2023/08/16 02:17:15;;;;;;;6.67;6.07;;;;;;;;;;5034757;28;20444;-89
2023/08/16 02:19:41;;;;;;;5.70;4.77;;;;;;;;;;5051986;28;20434;-89
2023/08/16 02:22:07;;;;;;;6.90;5.33;;;;;;;;;;5029789;28;20434;-88
2023/08/16 02:24:33;;;;;;;6.80;5.20;;;;;;;;;;5038948;28;20596;-88
2023/08/16 02:27:01;;;;;;;6.47;5.13;;;;;;;;;;5035506;28;20424;-89
2023/08/16 02:29:28;;;;;;;9.43;5.37;;;;;;;;;;5042281;28;20449;-88
2023/08/16 02:31:54;;;;;;;6.50;4.40;;;;;;;;;;5057862;28;20498;-89
2023/08/16 02:34:20;;;;;;;6.07;5.57;;;;;;;;;;5043781;28;20437;-88
2023/08/16 02:36:45;;;;;;;9.07;5.23;;;;;;;;;;5035408;28;20928;-88
2023/08/16 02:39:13;;;;;;;8.70;5.00;;;;;;;;;;5028009;28;20487;-89
2023/08/16 02:41:39;;;;;;;5.63;5.13;;;;;;;;;;5025970;28;20439;-88
2023/08/16 02:44:06;;;;;;;6.37;5.57;;;;;;;;;;5002892;28;20433;-88
2023/08/16 02:46:32;;;;;;;6.40;5.57;;;;;;;;;;5002307;28;20430;-88
2023/08/16 02:48:58;;;;;;;6.10;5.00;;;;;;;;;;5006557;28;20513;-89
2023/08/16 02:51:24;;;;;;;13.73;5.87;;;;;;;;;;5003862;28;20559;-88
2023/08/16 02:53:50;;;;;;;6.10;5.20;;;;;;;;;;5002848;28;20450;-89
2023/08/16 02:56:16;;;;;;;6.17;5.57;;;;;;;;;;5022443;28;20191;-88
2023/08/16 02:58:42;;;;;;;5.77;5.07;;;;;;;;;;5003729;28;20431;-88
2023/08/16 03:01:08;;;;;;;8.23;4.97;;;;;;;;;;4997296;28;20450;-88
2023/08/16 03:03:34;;;;;;;6.20;5.60;;;;;;;;;;5006367;28;20429;-89
2023/08/16 03:06:00;;;;;;;8.00;5.63;;;;;;;;;;5008408;28;20431;-89
2023/08/16 03:08:26;;;;;;;6.67;5.30;;;;;;;;;;5017233;28;20429;-89
2023/08/16 03:10:52;;;;;;;6.53;4.83;;;;;;;;;;5006287;28;20564;-89
2023/08/16 03:13:18;;;;;;;8.57;6.40;;;;;;;;;;5005488;28;21050;-88
2023/08/16 03:15:44;;;;;;;6.53;5.50;;;;;;;;;;5007778;28;20514;-88
2023/08/16 03:18:10;;;;;;;6.00;5.40;;;;;;;;;;5014730;28;20435;-88
2023/08/16 03:20:36;;;;;;;7.27;5.33;;;;;;;;;;5023959;28;20826;-89
2023/08/16 03:23:02;;;;;;;5.83;5.23;;;;;;;;;;5003062;28;20453;-89
2023/08/16 03:25:28;;;;;;;7.63;4.80;;;;;;;;;;5022633;28;20422;-89
2023/08/16 03:27:54;;;;;;;4.77;4.20;;;;;;;;;;5041979;28;20431;-89
2023/08/16 03:30:20;;;;;;;5.70;5.07;;;;;;;;;;5026911;28;20494;-88
2023/08/16 03:32:46;;;;;;;7.47;4.47;;;;;;;;;;5032584;28;20407;-88
2023/08/16 03:35:12;;;;;;;4.70;4.30;;;;;;;;;;5035629;28;20454;-89
2023/08/16 03:37:38;;;;;;;5.50;5.00;;;;;;;;;;5026493;28;20430;-88
2023/08/16 03:40:06;;;;;;;6.10;5.13;;;;;;;;;;5027089;28;20949;-89
2023/08/16 03:42:32;;;;;;;4.63;4.23;;;;;;;;;;5050119;28;20430;-88
2023/08/16 03:44:58;;;;;;;5.40;4.70;;;;;;;;;;5024092;28;20447;-88
2023/08/16 03:47:24;;;;;;;5.00;4.57;;;;;;;;;;5027892;28;20511;-89
2023/08/16 03:49:50;;;;;;;4.83;4.37;;;;;;;;;;5025421;28;20458;-89
2023/08/16 03:52:16;;;;;;;5.70;4.70;;;;;;;;;;5034693;28;20438;-88
2023/08/16 03:54:41;;;;;;;5.43;4.63;;;;;;;;;;5026857;28;20437;-88
2023/08/16 03:57:07;;;;;;;5.23;4.73;;;;;;;;;;5028007;28;20458;-88
2023/08/16 03:59:33;;;;;;;6.40;5.00;;;;;;;;;;5044357;28;20430;-88
2023/08/16 04:01:59;;;;;;;5.37;4.60;;;;;;;;;;5042099;28;20528;-88
2023/08/16 04:04:25;;;;;;;4.80;4.20;;;;;;;;;;5013645;28;20983;-91
2023/08/16 04:06:51;;;;;;;5.07;4.60;;;;;;;;;;5041675;28;21007;-89
2023/08/16 04:09:17;;;;;;;6.07;4.20;;;;;;;;;;5024913;28;20430;-89
2023/08/16 04:11:45;;;;;;;7.83;4.90;;;;;;;;;;5030590;28;20465;-89
2023/08/16 04:14:11;;;;;;;6.60;4.70;;;;;;;;;;5058967;28;20483;-90
2023/08/16 04:16:37;;;;;;;6.17;5.60;;;;;;;;;;5028182;28;20767;-90
2023/08/16 04:19:03;;;;;;;5.90;4.93;;;;;;;;;;5027349;28;20433;-90
2023/08/16 04:21:29;;;;;;;6.40;5.80;;;;;;;;;;5045401;28;20957;-90
2023/08/16 04:23:55;;;;;;;7.97;6.03;;;;;;;;;;5042993;28;20509;-89
2023/08/16 04:26:21;;;;;;;6.73;5.53;;;;;;;;;;5034123;28;20520;-90
2023/08/16 04:28:47;;;;;;;6.40;5.30;;;;;;;;;;5024997;28;20450;-90
2023/08/16 04:31:16;;;;;;;7.93;5.27;;;;;;;;;;5024857;28;20987;-89
2023/08/16 04:33:42;;;;;;;5.73;5.13;;;;;;;;;;5038023;28;20441;-89
2023/08/16 04:36:08;;;;;;;6.27;5.67;;;;;;;;;;5019067;28;20435;-90
2023/08/16 04:38:34;;;;;;;6.30;5.70;;;;;;;;;;5023646;28;20417;-89
2023/08/16 04:41:00;;;;;;;7.83;5.90;;;;;;;;;;5021138;28;20443;-89
2023/08/16 04:43:26;;;;;;;6.77;6.00;;;;;;;;;;5025077;28;20487;-92
2023/08/16 04:45:52;;;;;;;6.30;5.70;;;;;;;;;;5020994;28;20430;-90
2023/08/16 04:48:18;;;;;;;7.23;5.10;;;;;;;;;;5035403;28;20452;-90
2023/08/16 04:50:45;;;;;;;5.83;5.33;;;;;;;;;;5028742;28;20458;-90
2023/08/16 04:53:11;;;;;;;5.63;5.13;;;;;;;;;;5037420;28;20442;-90
2023/08/16 04:55:37;;;;;;;6.93;6.23;;;;;;;;;;5042237;28;20433;-90
2023/08/16 04:58:03;;;;;;;6.50;5.30;;;;;;;;;;5022073;28;20443;-89
2023/08/16 05:08:25;;;;;;;5.90;5.30;;;;;;;;;;5083592;28;20469;-89
2023/08/16 05:10:51;;;;;;;8.17;5.23;;;;;;;;;;5053014;28;20545;-89
2023/08/16 05:13:17;;;;;;;7.43;5.80;;;;;;;;;;5041981;28;20436;-89
2023/08/16 05:15:44;;;;;;;6.83;5.17;;;;;;;;;;5053055;28;21059;-90
2023/08/16 05:18:11;;;;;;;8.17;6.33;;;;;;;;;;5045665;28;20438;-90
2023/08/16 05:20:37;;;;;;;7.63;5.47;;;;;;;;;;5048904;28;20418;-89
2023/08/16 05:23:03;;;;;;;6.53;5.50;;;;;;;;;;5045984;28;20936;-89
2023/08/16 05:25:29;;;;;;;7.37;6.57;;;;;;;;;;5030648;28;20438;-89
2023/08/16 05:27:58;;;;;;;9.67;7.47;;;;;;;;;;5037798;28;20433;-89
2023/08/16 05:30:28;;;;;;;8.53;7.20;;;;;;;;;;5068146;28;20501;-89
2023/08/16 05:32:57;;;;;;;9.60;8.17;;;;;;;;;;5080479;28;20420;-88
2023/08/16 05:35:23;;;;;;;8.27;7.47;;;;;;;;;;5068773;28;20448;-89
2023/08/16 05:37:50;;;;;;;9.17;7.43;;;;;;;;;;5037863;28;20438;-89
2023/08/16 05:40:16;;;;;;;10.00;7.80;;;;;;;;;;5040932;28;20460;-89
2023/08/16 05:42:42;;;;;;;10.77;7.73;;;;;;;;;;5051013;28;20655;-90
2023/08/16 05:45:08;;;;;;;9.03;7.13;;;;;;;;;;5040996;28;20466;-89
2023/08/16 05:47:34;;;;;;;9.00;7.70;;;;;;;;;;5055927;28;20513;-89
2023/08/16 05:50:00;;;;;;;13.93;9.90;;;;;;;;;;5050064;28;20469;-89
2023/08/16 05:52:27;;;;;;;10.13;6.57;;;;;;;;;;5045578;28;20430;-89
2023/08/16 05:54:53;;;;;;;11.37;7.10;;;;;;;;;;5058156;28;20471;-89
2023/08/16 05:57:19;;;;;;;8.03;6.43;;;;;;;;;;5041026;28;20433;-89
2023/08/16 05:59:45;;;;;;;8.27;5.70;;;;;;;;;;5046375;28;20432;-90
2023/08/16 06:02:11;;;;;;;8.10;6.20;;;;;;;;;;5064102;28;20789;-90
2023/08/16 06:04:43;;;;;;;7.90;6.30;;;;;;;;;;5043731;28;20452;-90
2023/08/16 06:07:09;;;;;;;8.20;6.43;;;;;;;;;;5036296;28;20431;-90
2023/08/16 06:09:35;;;;;;;8.40;6.83;;;;;;;;;;5021836;28;20493;-89
2023/08/16 06:12:01;;;;;;;7.50;6.70;;;;;;;;;;5026410;28;20484;-91
2023/08/16 06:14:27;;;;;;;6.50;5.90;;;;;;;;;;5027250;28;20482;-91
2023/08/16 06:16:53;;;;;;;8.07;7.00;;;;;;;;;;5025547;28;20443;-90
2023/08/16 06:19:19;;;;;;;7.30;5.90;;;;;;;;;;5028188;28;20980;-91
2023/08/16 06:21:45;;;;;;;7.70;5.73;;;;;;;;;;5025659;28;20458;-91
2023/08/16 06:24:11;;;;;;;6.73;5.70;;;;;;;;;;5023218;28;20423;-91
2023/08/16 06:26:37;;;;;;;7.93;6.50;;;;;;;;;;5023451;28;20442;-90
2023/08/16 06:29:12;;;;;;;6.50;5.57;;;;;;;;;;5024839;28;20423;-91
2023/08/16 06:31:38;;;;;;;5.87;5.00;;;;;;;;;;5027754;28;20467;-90
2023/08/16 06:34:12;;;;;;;5.40;4.90;;;;;;;;;;5010173;28;20445;-91
2023/08/16 06:36:38;;;;;;;7.97;5.53;;;;;;;;;;5018828;28;20435;-91
2023/08/16 06:39:06;;;;;;;5.77;5.13;;;;;;;;;;5032315;28;20423;-90
2023/08/16 06:41:46;;;;;;;6.07;4.90;;;;;;;;;;5018606;28;20432;-90
2023/08/16 06:44:12;;;;;;;9.80;5.63;;;;;;;;;;5055478;28;20812;-89
2023/08/16 06:46:38;;;;;;;6.40;5.70;;;;;;;;;;5052291;28;20464;-91
2023/08/16 06:49:04;;;;;;;9.20;5.80;;;;;;;;;;5046299;28;20559;-90
2023/08/16 06:51:30;;;;;;;6.60;5.10;;;;;;;;;;5050688;28;20835;-89
2023/08/16 06:53:55;;;;;;;6.33;5.40;;;;;;;;;;5051274;28;20430;-90
2023/08/16 06:56:21;;;;;;;8.53;6.23;;;;;;;;;;5054676;28;20824;-90
2023/08/16 06:58:47;;;;;;;7.37;6.53;;;;;;;;;;5075781;28;20646;-90
2023/08/16 07:01:13;;;;;;;9.17;6.60;;;;;;;;;;5064270;28;20814;-90
2023/08/16 07:03:39;;;;;;;7.33;6.63;;;;;;;;;;5044370;28;20440;-90
2023/08/16 07:06:05;;;;;;;6.93;6.20;;;;;;;;;;5066280;28;20889;-90
2023/08/16 07:08:35;;;;;;;8.73;6.20;;;;;;;;;;5030508;28;20592;-90
2023/08/16 07:11:04;;;;;;;7.63;6.83;;;;;;;;;;5208276;22;20485;-90
2023/08/16 07:13:30;;;;;;;9.27;6.70;;;;;;;;;;5050701;28;20440;-90
2023/08/16 07:15:56;;;;;;;7.30;6.57;;;;;;;;;;5025965;28;20451;-90
2023/08/16 07:18:23;;;;;;;7.47;6.67;;;;;;;;;;5013862;28;20441;-90
2023/08/16 07:20:49;;;;;;;6.73;6.10;;;;;;;;;;5020138;28;20450;-89
2023/08/16 07:23:15;;;;;;;6.60;5.77;;;;;;;;;;5003340;28;20491;-91
2023/08/16 07:25:41;;;;;;;7.67;6.27;;;;;;;;;;5006878;28;20443;-90
2023/08/16 07:28:07;;;;;;;7.40;6.10;;;;;;;;;;5001099;28;20401;-90
2023/08/16 07:30:36;;;;;;;7.67;6.40;;;;;;;;;;5031736;28;20462;-90
2023/08/16 07:33:02;;;;;;;6.90;6.00;;;;;;;;;;5010990;28;20483;-90
2023/08/16 07:35:28;;;;;;;6.70;6.10;;;;;;;;;;4995942;28;20432;-89
2023/08/16 07:37:54;;;;;;;7.67;5.93;;;;;;;;;;5008512;28;20471;-90
2023/08/16 07:40:20;;;;;;;7.20;6.10;;;;;;;;;;5014492;28;21119;-90
2023/08/16 07:42:46;;;;;;;10.40;6.43;;;;;;;;;;4994398;28;20951;-90
2023/08/16 07:45:12;;;;;;;7.63;5.57;;;;;;;;;;4991354;28;20468;-90
2023/08/16 07:47:38;;;;;;;6.57;5.97;;;;;;;;;;5039447;28;20919;-91
2023/08/16 07:50:06;;;;;;;9.27;7.20;;;;;;;;;;5031149;28;20466;-90
2023/08/16 07:52:32;;;;;;;7.70;6.40;;;;;;;;;;5047057;28;20425;-90
2023/08/16 07:54:58;;;;;;;9.20;7.20;;;;;;;;;;5042354;28;20452;-91
2023/08/16 07:57:24;;;;;;;8.43;7.50;;;;;;;;;;5044052;28;20473;-90
2023/08/16 07:59:50;;;;;;;6.70;5.90;;;;;;;;;;5041182;28;20419;-90
2023/08/16 08:02:16;;;;;;;7.30;6.60;;;;;;;;;;5049816;28;20419;-91
2023/08/16 08:04:43;;;;;;;13.00;7.73;;;;;;;;;;5049491;28;20524;-90
2023/08/16 08:07:11;;;;;;;9.27;7.37;;;;;;;;;;5055114;28;20433;-90
2023/08/16 08:09:38;;;;;;;7.40;6.70;;;;;;;;;;5036676;28;20486;-90
2023/08/16 08:12:06;;;;;;;8.10;7.30;;;;;;;;;;5047538;28;20452;-91
2023/08/16 08:14:34;;;;;;;6.80;6.20;;;;;;;;;;5068286;28;20390;-90
2023/08/16 08:17:00;;;;;;;7.23;6.10;;;;;;;;;;5062654;28;20526;-90
2023/08/16 08:19:26;;;;;;;8.37;7.37;;;;;;;;;;5029810;28;20517;-89
2023/08/16 08:21:53;;;;;;;8.17;6.53;;;;;;;;;;5036806;28;20503;-90
2023/08/16 08:24:19;;;;;;;7.47;6.77;;;;;;;;;;5037312;28;21224;-90
2023/08/16 08:26:45;;;;;;;7.37;6.60;;;;;;;;;;5034754;28;20484;-90
2023/08/16 08:29:11;;;;;;;7.73;6.93;;;;;;;;;;5040202;28;20491;-90
2023/08/16 08:31:37;;;;;;;7.63;6.93;;;;;;;;;;5027663;28;20490;-89
2023/08/16 08:34:03;;;;;;;8.10;7.40;;;;;;;;;;5025433;28;20407;-89
2023/08/16 08:36:29;;;;;;;8.77;7.60;;;;;;;;;;5051035;28;20453;-90
2023/08/16 08:38:55;;;;;;;7.53;6.43;;;;;;;;;;5022978;28;21010;-91
2023/08/16 08:41:23;;;;;;;7.77;6.90;;;;;;;;;;5055354;28;20417;-90
2023/08/16 08:43:49;;;;;;;7.57;6.03;;;;;;;;;;5047135;28;20438;-90
2023/08/16 08:46:15;;;;;;;7.43;6.37;;;;;;;;;;5031230;28;20402;-90
2023/08/16 08:48:41;;;;;;;7.73;6.80;;;;;;;;;;5024183;28;20431;-90
2023/08/16 08:51:09;;;;;;;8.80;7.90;;;;;;;;;;5025848;28;20514;-90
2023/08/16 08:53:35;;;;;;;10.83;6.90;;;;;;;;;;5039557;28;20945;-90
2023/08/16 08:56:08;;;;;;;8.13;6.77;;;;;;;;;;5028286;28;20472;-89
2023/08/16 08:58:34;;;;;;;8.33;7.47;;;;;;;;;;5022836;28;20944;-90
2023/08/16 09:01:00;;;;;;;7.60;6.90;;;;;;;;;;5031596;28;20523;-90
2023/08/16 09:03:26;;;;;;;8.67;7.13;;;;;;;;;;5021738;28;20426;-90
2023/08/16 09:05:53;;;;;;;7.73;6.93;;;;;;;;;;5032782;28;20460;-91
2023/08/16 09:08:23;;;;;;;7.63;6.67;;;;;;;;;;5049181;28;20445;-90
2023/08/16 09:10:50;;;;;;;7.00;6.40;;;;;;;;;;5053929;28;20478;-91
2023/08/16 09:13:16;;;;;;;10.73;7.80;;;;;;;;;;5066151;28;20430;-90
2023/08/16 09:15:42;;;;;;;10.70;6.53;;;;;;;;;;5051075;28;20426;-90
2023/08/16 09:18:16;;;;;;;7.83;7.13;;;;;;;;;;5038865;28;20414;-91
2023/08/16 09:20:42;;;;;;;12.23;6.40;;;;;;;;;;5052964;28;21085;-90
2023/08/16 09:23:12;;;;;;;10.97;8.00;;;;;;;;;;5043372;28;20425;-90
2023/08/16 09:25:38;;;;;;;8.00;7.10;;;;;;;;;;5048051;28;20959;-90
2023/08/16 09:28:04;;;;;;;8.90;6.70;;;;;;;;;;5043053;28;20441;-90
2023/08/16 09:30:30;;;;;;;9.17;6.43;;;;;;;;;;5049135;28;20450;-91
2023/08/16 09:32:56;;;;;;;8.43;6.90;;;;;;;;;;5053591;28;20478;-91
2023/08/16 09:35:31;;;;;;;6.20;5.60;;;;;;;;;;5054878;28;20417;-90
2023/08/16 09:37:58;;;;;;;7.37;6.60;;;;;;;;;;5050915;28;20417;-89
2023/08/16 09:40:24;;;;;;;10.70;8.13;;;;;;;;;;5051680;28;20401;-91
2023/08/16 09:42:50;;;;;;;7.77;6.97;;;;;;;;;;5046015;28;20824;-90
2023/08/16 09:45:16;;;;;;;9.20;7.20;;;;;;;;;;5049494;28;20433;-90
2023/08/16 09:47:42;;;;;;;8.60;6.60;;;;;;;;;;5078040;28;20495;-90
2023/08/16 09:50:09;;;;;;;7.00;6.30;;;;;;;;;;5057910;28;20487;-90
2023/08/16 09:52:36;;;;;;;8.67;5.83;;;;;;;;;;5048810;28;20843;-90
2023/08/16 09:55:02;;;;;;;8.23;6.73;;;;;;;;;;5054098;28;20487;-90
2023/08/16 09:57:28;;;;;;;7.47;6.00;;;;;;;;;;5048651;28;20475;-90
2023/08/16 09:59:55;;;;;;;8.93;6.73;;;;;;;;;;5049518;28;20626;-90
2023/08/16 10:02:21;;;;;;;7.20;6.50;;;;;;;;;;5049034;28;20484;-90
2023/08/16 10:04:47;;;;;;;6.87;6.20;;;;;;;;;;5070767;28;20401;-89
2023/08/16 10:07:13;;;;;;;7.77;6.97;;;;;;;;;;5048223;28;20414;-91
2023/08/16 10:09:40;;;;;;;8.03;7.03;;;;;;;;;;5046831;28;20426;-90
2023/08/16 10:12:06;;;;;;;7.97;7.07;;;;;;;;;;5042111;28;20839;-90
2023/08/16 10:14:32;;;;;;;10.37;6.77;;;;;;;;;;5053066;28;20440;-90
2023/08/16 10:17:02;;;;;;;10.23;7.10;;;;;;;;;;5047791;28;20438;-90
2023/08/16 10:19:37;;;;;;;9.03;6.97;;;;;;;;;;5035126;28;20950;-89
2023/08/16 10:22:03;;;;;;;8.47;6.90;;;;;;;;;;5035070;28;20897;-89
2023/08/16 10:24:30;;;;;;;11.30;8.27;;;;;;;;;;5043440;28;20449;-90
2023/08/16 10:26:56;;;;;;;6.93;6.33;;;;;;;;;;5038272;28;20422;-91
2023/08/16 10:29:24;;;;;;;8.13;7.33;;;;;;;;;;5040720;28;20429;-90
2023/08/16 10:31:51;;;;;;;7.93;7.00;;;;;;;;;;5080353;28;20182;-90
2023/08/16 10:34:17;;;;;;;8.60;7.40;;;;;;;;;;5041515;28;20426;-89
2023/08/16 10:36:44;;;;;;;6.70;6.00;;;;;;;;;;5049113;28;20449;-90
2023/08/16 10:39:19;;;;;;;7.57;6.83;;;;;;;;;;5044302;28;20435;-89
2023/08/16 10:41:46;;;;;;;13.33;6.53;;;;;;;;;;5066662;28;20808;-91
2023/08/16 10:44:21;;;;;;;7.43;6.27;;;;;;;;;;5055871;28;21162;-89
2023/08/16 10:46:47;;;;;;;7.97;7.27;;;;;;;;;;5054294;28;20416;-89
2023/08/16 10:49:13;;;;;;;7.50;6.67;;;;;;;;;;5039217;28;20921;-89
2023/08/16 10:51:43;;;;;;;9.50;7.10;;;;;;;;;;5054120;28;20457;-91
2023/08/16 10:54:10;;;;;;;8.27;7.57;;;;;;;;;;5036402;28;20430;-89
2023/08/16 10:56:37;;;;;;;8.07;7.40;;;;;;;;;;5076861;28;20412;-89
2023/08/16 10:59:05;;;;;;;7.67;7.07;;;;;;;;;;5049540;28;20443;-90
2023/08/16 11:01:34;;;;;;;8.00;7.30;;;;;;;;;;5060127;28;20488;-90
2023/08/16 11:04:02;;;;;;;12.43;6.87;;;;;;;;;;5049950;28;20965;-90
2023/08/16 11:06:29;;;;;;;7.80;7.00;;;;;;;;;;5051442;28;20418;-89
2023/08/16 11:08:55;;;;;;;7.27;6.47;;;;;;;;;;5043956;28;20820;-89
2023/08/16 11:11:22;;;;;;;8.03;7.30;;;;;;;;;;5020541;28;20720;-90
2023/08/16 11:13:52;;;;;;;8.70;7.47;;;;;;;;;;5041110;28;20434;-88
2023/08/16 11:16:18;;;;;;;7.73;6.93;;;;;;;;;;5022719;28;21053;-90
2023/08/16 11:18:45;;;;;;;7.60;7.00;;;;;;;;;;4991877;28;20439;-90
2023/08/16 11:21:14;;;;;;;7.80;7.00;;;;;;;;;;4991695;28;20424;-90
2023/08/16 11:23:40;;;;;;;7.60;6.60;;;;;;;;;;4991650;28;20448;-91
2023/08/16 11:26:07;;;;;;;8.50;7.00;;;;;;;;;;5006518;28;20487;-89
2023/08/16 11:28:34;;;;;;;7.90;7.20;;;;;;;;;;5002801;28;20920;-90
2023/08/16 11:31:21;;;;;;;6.90;6.20;;;;;;;;;;4986513;28;20465;-90
2023/08/16 11:33:48;;;;;;;7.40;6.70;;;;;;;;;;5023986;28;20982;-90
2023/08/16 11:36:15;;;;;;;7.73;7.00;;;;;;;;;;5022141;28;20410;-90
2023/08/16 11:38:41;;;;;;;6.93;6.37;;;;;;;;;;4993417;28;20407;-91
2023/08/16 11:41:07;;;;;;;7.03;6.27;;;;;;;;;;4988663;28;20454;-90
2023/08/16 11:43:33;;;;;;;7.40;6.70;;;;;;;;;;4981445;28;20402;-90
2023/08/16 11:46:02;;;;;;;8.50;7.20;;;;;;;;;;4972968;28;20429;-91
2023/08/16 11:48:29;;;;;;;6.97;6.27;;;;;;;;;;5005973;28;20423;-90
2023/08/16 11:51:02;;;;;;;6.83;6.33;;;;;;;;;;5061933;28;20451;-91
2023/08/16 11:53:32;;;;;;;6.63;6.03;;;;;;;;;;5263382;22;20488;-91
2023/08/16 11:56:03;;;;;;;6.90;6.30;;;;;;;;;;5057155;28;20967;-92
2023/08/16 11:58:29;;;;;;;6.97;6.37;;;;;;;;;;5068987;28;20490;-91
2023/08/16 12:01:09;;;;;;;8.90;7.30;;;;;;;;;;5061797;28;20524;-91
2023/08/16 12:03:35;;;;;;;10.20;7.17;;;;;;;;;;5047628;28;20967;-91
2023/08/16 12:06:24;;;;;;;6.77;6.17;;;;;;;;;;5041676;28;20992;-91
2023/08/16 12:08:58;;;;;;;7.67;6.97;;;;;;;;;;5061131;28;20876;-90
2023/08/16 12:11:31;;;;;;;9.10;6.70;;;;;;;;;;5053743;28;20481;-90
2023/08/16 12:13:57;;;;;;;7.97;7.17;;;;;;;;;;5044587;28;20502;-90
2023/08/16 12:16:23;;;;;;;7.33;6.57;;;;;;;;;;5026104;28;20465;-90
2023/08/16 12:18:53;;;;;;;7.60;6.90;;;;;;;;;;5021815;28;20509;-90
2023/08/16 12:21:20;;;;;;;6.70;6.10;;;;;;;;;;5040445;28;20433;-89
2023/08/16 12:23:47;;;;;;;7.63;6.33;;;;;;;;;;4986187;28;20495;-89
2023/08/16 12:26:17;;;;;;;7.20;6.50;;;;;;;;;;4989510;28;20461;-90
2023/08/16 12:28:59;;;;;;;10.20;6.47;;;;;;;;;;4962887;28;20480;-89
2023/08/16 12:31:27;;;;;;;7.10;6.40;;;;;;;;;;4979974;28;20464;-90
2023/08/16 12:33:55;;;;;;;6.73;6.13;;;;;;;;;;4988633;28;20431;-90
2023/08/16 12:36:21;;;;;;;10.07;6.23;;;;;;;;;;5015751;28;20448;-89
2023/08/16 12:38:47;;;;;;;6.93;6.23;;;;;;;;;;5023099;28;20830;-89
2023/08/16 12:41:20;;;;;;;6.90;6.30;;;;;;;;;;5032899;28;20427;-90
2023/08/16 12:43:46;;;;;;;6.87;5.63;;;;;;;;;;5021512;28;20443;-92
2023/08/16 12:46:14;;;;;;;5.93;5.40;;;;;;;;;;5009165;28;21145;-91
2023/08/16 12:48:40;;;;;;;6.93;6.33;;;;;;;;;;5019303;28;20454;-90
2023/08/16 12:51:06;;;;;;;6.80;6.20;;;;;;;;;;5008220;28;20989;-90
2023/08/16 12:53:33;;;;;;;6.27;5.37;;;;;;;;;;5023028;28;20468;-91
2023/08/16 12:56:05;;;;;;;7.80;5.60;;;;;;;;;;5016145;28;20478;-90
2023/08/16 12:58:35;;;;;;;6.57;5.77;;;;;;;;;;5013084;28;20439;-90
2023/08/16 13:01:01;;;;;;;6.93;6.23;;;;;;;;;;5037166;28;20437;-90
2023/08/16 13:03:27;;;;;;;5.90;5.30;;;;;;;;;;5060371;28;20534;-91
2023/08/16 13:05:55;;;;;;;5.87;5.27;;;;;;;;;;5062373;28;20460;-91
2023/08/16 13:08:21;;;;;;;5.53;5.13;;;;;;;;;;5062883;28;20489;-92
2023/08/16 13:10:47;;;;;;;7.03;5.60;;;;;;;;;;5043193;28;20485;-91
2023/08/16 13:13:14;;;;;;;6.13;5.43;;;;;;;;;;5054160;28;20192;-91
2023/08/16 13:15:40;;;;;;;6.77;5.83;;;;;;;;;;5043614;28;20480;-91
2023/08/16 13:18:06;;;;;;;6.27;4.97;;;;;;;;;;5045016;28;20414;-91
2023/08/16 13:20:32;;;;;;;6.97;5.93;;;;;;;;;;5027953;28;20405;-91
2023/08/16 13:22:58;;;;;;;7.83;4.90;;;;;;;;;;5024956;28;20447;-89
2023/08/16 13:25:24;;;;;;;5.80;5.10;;;;;;;;;;5038122;28;20433;-89
2023/08/16 13:27:50;;;;;;;5.53;5.03;;;;;;;;;;5037543;28;20419;-92
2023/08/16 13:30:16;;;;;;;5.40;4.30;;;;;;;;;;5034309;28;20462;-89
2023/08/16 13:32:45;;;;;;;5.67;4.70;;;;;;;;;;5041314;28;20533;-91
2023/08/16 13:35:11;;;;;;;5.50;5.00;;;;;;;;;;5039362;28;20964;-88
2023/08/16 13:37:37;;;;;;;5.30;4.83;;;;;;;;;;5011328;28;20420;-92
2023/08/16 13:40:03;;;;;;;6.50;4.93;;;;;;;;;;5046851;28;20413;-90
2023/08/16 13:42:29;;;;;;;4.33;3.93;;;;;;;;;;5065153;28;21020;-90
2023/08/16 13:44:55;;;;;;;4.60;4.20;;;;;;;;;;5092481;28;20421;-90
2023/08/16 13:47:21;;;;;;;6.43;4.13;;;;;;;;;;5067763;28;20801;-91
2023/08/16 13:49:47;;;;;;;6.50;4.53;;;;;;;;;;5071295;28;20416;-91
2023/08/16 13:52:13;;;;;;;5.10;4.53;;;;;;;;;;5067943;28;20224;-91
2023/08/16 13:54:39;;;;;;;4.57;4.10;;;;;;;;;;5082034;28;20471;-91
2023/08/16 13:57:06;;;;;;;5.27;4.77;;;;;;;;;;5068471;28;20989;-90
2023/08/16 13:59:35;;;;;;;4.90;4.40;;;;;;;;;;5072504;28;20433;-90
2023/08/16 14:02:01;;;;;;;6.13;4.77;;;;;;;;;;5063316;28;20509;-90
2023/08/16 14:04:27;;;;;;;5.97;4.50;;;;;;;;;;5056140;28;20423;-92
2023/08/16 14:06:53;;;;;;;5.23;4.83;;;;;;;;;;5067772;28;20420;-91
2023/08/16 14:09:19;;;;;;;5.00;4.50;;;;;;;;;;5069171;28;20553;-90
2023/08/16 14:11:45;;;;;;;5.17;3.97;;;;;;;;;;5068950;28;20472;-89
2023/08/16 14:14:13;;;;;;;5.50;4.60;;;;;;;;;;5064885;28;20446;-90
2023/08/16 14:16:39;;;;;;;7.87;4.20;;;;;;;;;;5065614;28;20228;-90
2023/08/16 14:19:07;;;;;;;5.17;4.67;;;;;;;;;;5064205;28;20421;-90
2023/08/16 14:21:36;;;;;;;4.40;4.00;;;;;;;;;;5087885;28;20473;-90
2023/08/16 14:24:05;;;;;;;5.30;4.80;;;;;;;;;;5061505;28;20442;-91
2023/08/16 14:26:31;;;;;;;5.73;4.60;;;;;;;;;;5054759;28;20481;-90
2023/08/16 14:28:57;;;;;;;4.87;4.37;;;;;;;;;;5052533;28;20455;-90
2023/08/16 14:31:23;;;;;;;6.33;5.30;;;;;;;;;;5033350;28;21044;-90
2023/08/16 14:33:58;;;;;;;4.93;4.23;;;;;;;;;;5001067;28;20439;-92
2023/08/16 14:36:24;;;;;;;6.33;5.20;;;;;;;;;;5021615;28;20433;-90
2023/08/16 14:38:51;;;;;;;4.90;4.10;;;;;;;;;;5006260;28;20431;-91
2023/08/16 14:41:17;;;;;;;5.20;4.80;;;;;;;;;;5033078;28;21311;-91
2023/08/16 14:43:43;;;;;;;5.93;4.60;;;;;;;;;;5003824;28;20452;-92
2023/08/16 14:46:09;;;;;;;5.57;4.77;;;;;;;;;;5025073;28;20462;-91
2023/08/16 14:48:35;;;;;;;6.33;5.23;;;;;;;;;;5020466;28;20796;-90
2023/08/16 14:51:01;;;;;;;6.90;4.67;;;;;;;;;;5006784;28;20843;-90